Time;durP1;ratioP1;P1;durP2;ratioP2;P2;SDS_P1;SDS_P2;PMS_P1;PMS_P2;Temp;Humidity;BMP_temperature;BMP_pressure;BME280_temperature;BME280_humidity;BME280_pressure;Samples;Min_cycle;Max_cycle;Signal;HPM_P1;HPM_P2
2022/11/16 00:01:20;;;;;;;;;;;;;;;18.58;62.76;99967.59;5046603;28;19921;-73
2022/11/16 00:03:45;;;;;;;;;;;;;;;18.83;61.73;99974.50;5052752;28;19940;-73
2022/11/16 00:06:11;;;;;;;;;;;;;;;18.88;61.99;99972.50;5053427;28;19909;-72
2022/11/16 00:08:38;;;;;;;;;;;;;;;18.37;63.59;99961.69;5053165;28;20420;-76
2022/11/16 00:11:14;;;;;;;;;;;;;;;18.60;62.66;99968.09;5043607;28;19991;-72
2022/11/16 00:13:40;;;;;;;;;;;;;;;19.14;60.52;99972.81;5043938;28;19970;-73
2022/11/16 00:16:06;;;;;;;;;;;;;;;18.90;61.82;99964.03;5041573;28;19913;-73
2022/11/16 00:18:32;;;;;;;;;;;;;;;18.76;62.28;99964.00;5041814;28;19962;-73
2022/11/16 00:20:57;;;;;;;;;;;;;;;18.62;62.62;99967.81;5045930;28;19917;-73
2022/11/16 00:23:22;;;;;;;;;;;;;;;18.63;62.74;99959.38;5052177;28;19959;-72
2022/11/16 00:25:48;;;;;;;;;;;;;;;18.74;62.78;99959.97;5052211;28;19923;-73
2022/11/16 00:28:13;;;;;;;;;;;;;;;18.82;62.54;99954.66;5052476;28;19925;-74
2022/11/16 00:30:38;;;;;;;;;;;;;;;18.23;64.66;99949.94;5032177;28;19917;-73
2022/11/16 00:33:04;;;;;;;;;;;;;;;18.53;63.45;99956.00;5031986;28;20515;-73
2022/11/16 00:35:29;;;;;;;;;;;;;;;18.12;65.05;99943.03;5032366;28;19917;-72
2022/11/16 00:37:55;;;;;;;;;;;;;;;18.80;63.08;99951.41;5031711;28;19912;-72
2022/11/16 00:40:20;;;;;;;;;;;;;;;18.38;64.08;99937.97;5031778;28;20297;-72
2022/11/16 00:42:46;;;;;;;;;;;;;;;18.17;64.90;99942.16;5031657;28;20391;-72
2022/11/16 00:45:11;;;;;;;;;;;;;;;18.54;63.79;99939.38;5031971;28;19912;-73
2022/11/16 00:47:36;;;;;;;;;;;;;;;18.40;64.46;99943.94;5032120;28;19920;-72
2022/11/16 00:50:02;;;;;;;;;;;;;;;18.40;64.08;99939.31;5031625;28;20332;-72
2022/11/16 00:52:27;;;;;;;;;;;;;;;18.97;62.57;99942.63;5045047;28;19916;-71
2022/11/16 00:54:52;;;;;;;;;;;;;;;18.92;62.61;99940.84;5051479;28;19927;-72
2022/11/16 00:57:18;;;;;;;;;;;;;;;19.05;62.05;99934.59;5051505;28;19922;-73
2022/11/16 00:59:43;;;;;;;;;;;;;;;19.00;62.45;99942.06;5051907;28;20288;-73
2022/11/16 01:02:08;;;;;;;;;;;;;;;19.14;61.52;99935.47;5051449;28;19994;-73
2022/11/16 01:04:33;;;;;;;;;;;;;;;18.62;63.70;99935.16;5051721;28;20398;-73
2022/11/16 01:06:58;;;;;;;;;;;;;;;18.77;63.33;99927.50;5051685;28;20297;-73
2022/11/16 01:09:24;;;;;;;;;;;;;;;18.86;63.06;99927.63;5051525;28;20376;-72
2022/11/16 01:12:07;;;;;;;;;;;;;;;18.88;62.75;99926.22;5051903;28;20003;-73
2022/11/16 01:14:33;;;;;;;;;;;;;;;19.37;61.04;99928.25;5051287;28;19917;-73
2022/11/16 01:16:58;;;;;;;;;;;;;;;18.15;65.80;99920.69;5051133;28;19923;-72
2022/11/16 01:19:24;;;;;;;;;;;;;;;18.13;65.59;99914.75;5051306;28;19936;-72
2022/11/16 01:21:49;;;;;;;;;;;;;;;18.31;65.85;99924.78;5051608;28;19958;-72
2022/11/16 01:24:14;;;;;;;;;;;;;;;18.37;65.18;99917.34;5041752;28;19966;-73
2022/11/16 01:26:39;;;;;;;;;;;;;;;18.13;66.32;99909.31;5031879;28;19912;-73
2022/11/16 01:29:05;;;;;;;;;;;;;;;18.59;64.54;99916.72;5036530;28;19956;-73
2022/11/16 01:31:30;;;;;;;;;;;;;;;18.14;66.54;99915.56;5051381;28;19916;-74
2022/11/16 01:33:55;;;;;;;;;;;;;;;18.58;64.97;99906.91;5051121;28;19913;-73
2022/11/16 01:36:20;;;;;;;;;;;;;;;18.24;66.37;99909.94;5051280;28;19924;-71
2022/11/16 01:38:46;;;;;;;;;;;;;;;18.30;65.36;99906.84;5051523;28;19913;-72
2022/11/16 01:41:15;;;;;;;;;;;;;;;18.19;65.92;99907.31;5050904;28;20416;-73
2022/11/16 01:44:07;;;;;;;;;;;;;;;18.37;65.60;99910.00;5051079;28;19916;-72
2022/11/16 01:46:32;;;;;;;;;;;;;;;18.81;64.52;99904.00;4988744;28;19917;-72
2022/11/16 01:49:00;;;;;;;;;;;;;;;19.01;63.07;99892.72;4988938;28;19920;-72
2022/11/16 01:51:26;;;;;;;;;;;;;;;18.86;63.85;99900.41;4984490;28;19925;-73
2022/11/16 01:53:51;;;;;;;;;;;;;;;18.36;65.26;99886.59;4971328;28;19914;-73
2022/11/16 01:56:17;;;;;;;;;;;;;;;18.62;65.13;99894.31;4973103;28;20330;-73
2022/11/16 01:58:42;;;;;;;;;;;;;;;18.37;65.78;99892.84;4973208;28;19949;-72
2022/11/16 02:01:07;;;;;;;;;;;;;;;18.54;64.96;99890.38;4976382;28;19965;-72
2022/11/16 02:03:35;;;;;;;;;;;;;;;18.25;65.79;99898.78;4992748;28;20382;-73
2022/11/16 02:06:13;;;;;;;;;;;;;;;17.89;67.39;99889.59;4992582;28;19910;-73
2022/11/16 02:11:49;;;;;;;;;;;;;;;18.29;66.23;99882.66;4992512;28;20419;-72
2022/11/16 02:14:18;;;;;;;;;;;;;;;17.92;67.79;99872.69;4992031;28;19925;-71
2022/11/16 02:16:50;;;;;;;;;;;;;;;18.45;66.08;99872.34;4992136;28;20413;-73
2022/11/16 02:19:15;;;;;;;;;;;;;;;18.04;67.59;99866.78;4992380;28;19921;-72
2022/11/16 02:21:41;;;;;;;;;;;;;;;18.14;66.85;99864.69;4992378;28;19918;-73
2022/11/16 02:24:06;;;;;;;;;;;;;;;18.04;67.32;99870.28;5033589;28;19913;-72
2022/11/16 02:26:40;;;;;;;;;;;;;;;18.41;65.59;99869.38;5054876;28;19913;-73
2022/11/16 02:29:18;;;;;;;;;;;;;;;18.52;65.46;99862.66;5047008;28;19936;-72
2022/11/16 02:31:58;;;;;;;;;;;;;;;18.03;66.82;99863.25;5034319;28;19921;-73
2022/11/16 02:34:25;;;;;;;;;;;;;;;18.17;66.93;99864.09;5034409;28;20032;-72
2022/11/16 02:36:53;;;;;;;;;;;;;;;18.39;66.11;99860.72;5033843;28;19966;-73
2022/11/16 02:39:20;;;;;;;;;;;;;;;18.60;65.24;99856.53;5033747;28;20385;-74
2022/11/16 02:41:47;;;;;;;;;;;;;;;18.14;65.92;99850.31;5034301;28;20020;-73
2022/11/16 02:44:27;;;;;;;;;;;;;;;18.48;65.26;99845.34;5033759;28;19917;-72
2022/11/16 02:46:56;;;;;;;;;;;;;;;18.61;65.08;99846.47;5033678;28;19913;-73
2022/11/16 02:49:22;;;;;;;;;;;;;;;18.60;64.55;99839.38;5033783;28;19925;-71
2022/11/16 02:51:49;;;;;;;;;;;;;;;18.16;66.60;99848.09;5041147;28;19916;-74
2022/11/16 02:54:15;;;;;;;;;;;;;;;18.05;67.40;99847.44;5053851;28;19923;-71
2022/11/16 02:56:55;;;;;;;;;;;;;;;18.07;66.97;99855.31;5054332;28;19904;-72
2022/11/16 02:59:22;;;;;;;;;;;;;;;18.66;65.13;99855.31;5051907;28;19921;-72
2022/11/16 03:01:56;;;;;;;;;;;;;;;18.62;64.99;99853.50;5053274;28;19913;-73
2022/11/16 03:04:29;;;;;;;;;;;;;;;18.64;64.24;99852.09;5053347;28;19916;-72
2022/11/16 03:06:57;;;;;;;;;;;;;;;18.55;65.00;99847.66;5052653;28;19960;-72
2022/11/16 03:09:27;;;;;;;;;;;;;;;18.36;65.42;99848.53;5053586;28;19923;-71
2022/11/16 03:12:01;;;;;;;;;;;;;;;18.86;63.61;99846.75;5053600;28;20242;-72
2022/11/16 03:14:44;;;;;;;;;;;;;;;18.66;64.58;99844.44;5053423;28;19924;-72
2022/11/16 03:17:16;;;;;;;;;;;;;;;18.53;64.83;99842.53;5053427;28;19921;-73
2022/11/16 03:19:56;;;;;;;;;;;;;;;18.57;65.19;99848.16;5053107;28;20011;-73
2022/11/16 03:22:34;;;;;;;;;;;;;;;18.80;64.24;99837.09;5053216;28;19948;-72
2022/11/16 03:24:59;;;;;;;;;;;;;;;18.42;65.61;99831.03;5037310;28;19921;-73
2022/11/16 03:27:27;;;;;;;;;;;;;;;18.18;66.60;99840.44;5033073;28;20323;-73
2022/11/16 03:29:52;;;;;;;;;;;;;;;18.41;65.25;99834.03;5046373;28;19912;-74
2022/11/16 03:32:21;;;;;;;;;;;;;;;18.33;66.13;99832.00;5052856;28;20075;-73
2022/11/16 03:34:55;;;;;;;;;;;;;;;18.30;65.80;99829.84;5053129;28;19920;-74
2022/11/16 03:37:21;;;;;;;;;;;;;;;18.56;64.99;99831.03;5052822;28;19917;-73
2022/11/16 03:39:47;;;;;;;;;;;;;;;18.40;65.86;99826.94;5053009;28;19986;-73
2022/11/16 03:42:13;;;;;;;;;;;;;;;18.78;63.79;99828.41;5053244;28;19975;-73
2022/11/16 03:44:39;;;;;;;;;;;;;;;18.60;64.67;99826.59;5053203;28;19919;-74
2022/11/16 03:47:04;;;;;;;;;;;;;;;19.10;62.43;99820.09;5052510;28;19916;-74
2022/11/16 03:49:30;;;;;;;;;;;;;;;18.86;63.39;99822.25;5052700;28;19920;-73
2022/11/16 03:51:56;;;;;;;;;;;;;;;18.46;65.46;99833.13;5052646;28;19921;-73
2022/11/16 03:54:21;;;;;;;;;;;;;;;18.42;65.21;99817.44;5052238;28;19951;-72
2022/11/16 03:56:46;;;;;;;;;;;;;;;18.57;64.32;99821.78;5053069;28;19985;-73
2022/11/16 03:59:11;;;;;;;;;;;;;;;18.90;63.39;99831.44;5051235;28;20130;-73
2022/11/16 04:01:37;;;;;;;;;;;;;;;18.26;64.92;99816.06;5052515;28;20495;-74
2022/11/16 04:04:02;;;;;;;;;;;;;;;18.26;65.50;99826.94;5052389;28;19951;-73
2022/11/16 04:25:41;;;;;;;;;;;;;;;19.07;62.52;99809.00;5032484;28;19920;-71
2022/11/16 04:28:13;;;;;;;;;;;;;;;18.98;62.75;99819.81;5032378;28;20332;-72
2022/11/16 04:38:56;;;;;;;;;;;;;;;18.57;64.53;99819.06;5052753;28;20265;-74
2022/11/16 04:44:06;;;;;;;;;;;;;;;19.13;61.91;99822.22;5052182;28;19970;-74
2022/11/16 04:49:15;;;;;;;;;;;;;;;19.05;62.65;99835.72;5052137;28;19924;-72
2022/11/16 04:51:40;;;;;;;;;;;;;;;18.77;63.74;99836.88;5051381;28;19916;-73
2022/11/16 04:54:05;;;;;;;;;;;;;;;18.74;63.97;99843.75;5051665;28;19912;-71
2022/11/16 04:56:30;;;;;;;;;;;;;;;18.39;65.04;99852.56;5052318;28;19908;-73
2022/11/16 04:58:56;;;;;;;;;;;;;;;17.68;68.46;99854.88;5051342;28;20414;-73
2022/11/16 05:02:06;;;;;;;;;;;;;;;17.52;69.33;99874.13;5048125;28;19923;-71
2022/11/16 05:04:06;;;;;;;;;;;;;;;17.11;72.50;99866.78;5037967;28;20399;-72
2022/11/16 05:06:31;;;;;;;;;;;;;;;17.10;71.55;99859.75;5034656;28;19913;-72
2022/11/16 05:08:56;;;;;;;;;;;;;;;17.30;70.62;99867.63;5050276;28;19913;-72
2022/11/16 05:11:22;;;;;;;;;;;;;;;17.36;70.39;99869.97;5035877;28;19923;-75
2022/11/16 05:13:47;;;;;;;;;;;;;;;17.21;70.08;99880.25;5049925;28;19924;-75
2022/11/16 05:16:13;;;;;;;;;;;;;;;17.32;70.78;99876.28;5051308;28;20394;-75
2022/11/16 05:18:38;;;;;;;;;;;;;;;17.81;68.93;99873.16;5051671;28;19928;-75
2022/11/16 05:21:03;;;;;;;;;;;;;;;17.96;67.36;99879.16;5052145;28;19918;-75
2022/11/16 05:26:12;;;;;;;;;;;;;;;18.16;66.83;99867.13;5052059;28;20394;-76
2022/11/16 05:28:40;;;;;;;;;;;;;;;17.85;68.72;99872.25;5052383;28;19960;-74
2022/11/16 05:31:05;;;;;;;;;;;;;;;17.61;68.73;99860.66;5055827;28;19928;-75
2022/11/16 05:33:31;;;;;;;;;;;;;;;17.71;69.42;99857.78;5055761;28;19916;-75
2022/11/16 05:35:56;;;;;;;;;;;;;;;17.27;70.02;99866.31;5056329;28;20007;-74
2022/11/16 05:38:21;;;;;;;;;;;;;;;17.32;70.33;99866.22;5055759;28;19999;-75
2022/11/16 05:40:46;;;;;;;;;;;;;;;17.86;67.69;99871.16;5056038;28;19925;-75
2022/11/16 05:43:12;;;;;;;;;;;;;;;17.89;67.89;99870.56;5055580;28;19976;-76
2022/11/16 05:45:37;;;;;;;;;;;;;;;18.06;67.63;99864.59;5055259;28;19920;-74
2022/11/16 05:48:02;;;;;;;;;;;;;;;18.11;66.80;99878.88;5055354;28;19938;-77
2022/11/16 05:50:27;;;;;;;;;;;;;;;18.52;65.53;99881.72;5056046;28;19913;-77
2022/11/16 05:52:53;;;;;;;;;;;;;;;18.78;63.95;99876.59;5055295;28;19943;-76
2022/11/16 05:55:18;;;;;;;;;;;;;;;18.77;63.90;99883.16;5055590;28;20289;-74
2022/11/16 05:57:43;;;;;;;;;;;;;;;18.57;64.42;99889.00;5053709;28;20388;-77
2022/11/16 06:00:09;;;;;;;;;;;;;;;18.62;63.87;99894.31;5055347;28;20293;-76
2022/11/16 06:02:34;;;;;;;;;;;;;;;18.71;63.76;99901.47;5055625;28;19904;-76
2022/11/16 06:04:59;;;;;;;;;;;;;;;18.70;63.63;99899.88;5055485;28;19916;-77
2022/11/16 06:07:24;;;;;;;;;;;;;;;18.69;63.67;99902.91;5055340;28;19912;-78
2022/11/16 06:09:50;;;;;;;;;;;;;;;18.36;64.84;99905.66;5055546;28;19925;-76
2022/11/16 06:12:15;;;;;;;;;;;;;;;18.48;64.28;99909.81;5054087;28;19919;-76
2022/11/16 06:14:40;;;;;;;;;;;;;;;18.61;63.28;99900.88;5047063;28;20051;-77
2022/11/16 06:17:24;;;;;;;;;;;;;;;18.58;63.61;99907.72;5046135;28;19957;-75
2022/11/16 06:19:49;;;;;;;;;;;;;;;18.54;63.39;99904.00;5042312;28;19921;-76
2022/11/16 06:22:14;;;;;;;;;;;;;;;18.42;63.95;99904.47;5035051;28;19913;-76
2022/11/16 06:24:39;;;;;;;;;;;;;;;18.39;64.34;99912.41;5047658;28;19917;-75
2022/11/16 06:27:04;;;;;;;;;;;;;;;18.49;63.58;99912.25;5054972;28;19913;-77
2022/11/16 06:29:30;;;;;;;;;;;;;;;18.47;63.74;99914.47;5054135;28;19924;-77
2022/11/16 06:31:55;;;;;;;;;;;;;;;18.48;63.73;99907.91;5054617;28;20003;-77
2022/11/16 06:34:20;;;;;;;;;;;;;;;18.46;63.85;99912.03;5054672;28;20001;-77
2022/11/16 06:36:45;;;;;;;;;;;;;;;18.49;63.72;99917.69;5054957;28;19920;-76
2022/11/16 06:39:11;;;;;;;;;;;;;;;18.41;63.52;99921.88;5054163;28;20004;-77
2022/11/16 06:41:37;;;;;;;;;;;;;;;18.41;63.92;99905.56;5050252;28;19970;-76
2022/11/16 06:44:02;;;;;;;;;;;;;;;18.45;63.54;99908.53;5054271;28;19937;-77
2022/11/16 06:46:27;;;;;;;;;;;;;;;18.47;63.09;99909.03;5054465;28;20426;-76
2022/11/16 06:48:52;;;;;;;;;;;;;;;18.47;63.54;99922.63;5054415;28;20311;-76
2022/11/16 06:51:18;;;;;;;;;;;;;;;18.36;63.63;99932.84;5054149;28;20011;-77
2022/11/16 06:53:43;;;;;;;;;;;;;;;18.36;63.66;99932.84;5054711;28;19909;-77
2022/11/16 06:56:11;;;;;;;;;;;;;;;18.10;64.33;99928.91;5053860;28;19917;-76
2022/11/16 06:58:36;;;;;;;;;;;;;;;18.39;63.44;99936.88;5053638;28;20337;-77
2022/11/16 07:01:08;;;;;;;;;;;;;;;18.30;63.56;99938.66;5052526;28;19916;-75
2022/11/16 07:03:33;;;;;;;;;;;;;;;18.12;64.35;99948.47;5054346;28;20011;-75
2022/11/16 07:05:58;;;;;;;;;;;;;;;18.35;63.60;99954.91;5043707;28;20044;-75
2022/11/16 07:08:24;;;;;;;;;;;;;;;18.26;63.58;99949.34;5041247;28;19963;-76
2022/11/16 07:10:49;;;;;;;;;;;;;;;18.14;64.12;99957.13;5035708;28;19971;-75
2022/11/16 07:13:14;;;;;;;;;;;;;;;18.28;63.37;99949.84;5041467;28;19953;-79
2022/11/16 07:15:39;;;;;;;;;;;;;;;18.08;63.63;99950.16;5038074;28;19923;-77
2022/11/16 07:18:05;;;;;;;;;;;;;;;17.98;64.03;99954.97;5041949;28;19939;-75
2022/11/16 07:20:31;;;;;;;;;;;;;;;17.89;64.41;99954.81;5044867;28;19920;-76
2022/11/16 07:22:58;;;;;;;;;;;;;;;18.09;63.47;99959.94;5041509;28;19930;-76
2022/11/16 07:25:23;;;;;;;;;;;;;;;18.05;63.75;99964.38;5041859;28;19969;-75
2022/11/16 07:27:48;;;;;;;;;;;;;;;18.14;63.74;99964.50;5042548;28;19913;-75
2022/11/16 07:30:13;;;;;;;;;;;;;;;18.23;62.93;99957.28;5044961;28;19963;-75
2022/11/16 07:32:39;;;;;;;;;;;;;;;17.99;63.08;99959.28;5041355;28;19912;-75
2022/11/16 07:35:04;;;;;;;;;;;;;;;18.05;63.51;99966.25;5041243;28;20031;-73
2022/11/16 07:37:30;;;;;;;;;;;;;;;17.98;63.69;99972.09;5044088;28;19917;-74
2022/11/16 07:39:55;;;;;;;;;;;;;;;17.92;63.29;99981.44;5042032;28;20292;-76
2022/11/16 07:42:20;;;;;;;;;;;;;;;17.60;64.89;99977.78;5042159;28;20333;-76
2022/11/16 07:44:45;;;;;;;;;;;;;;;17.80;63.74;99982.97;5042993;28;20157;-74
2022/11/16 07:47:11;;;;;;;;;;;;;;;17.88;63.67;99988.56;5045220;28;20316;-75
2022/11/16 07:49:36;;;;;;;;;;;;;;;17.81;63.80;99998.97;5036067;28;19928;-75
2022/11/16 07:52:02;;;;;;;;;;;;;;;17.70;63.76;99996.69;5035038;28;19917;-76
2022/11/16 07:54:27;;;;;;;;;;;;;;;17.56;64.55;100004.75;5048247;28;20032;-74
2022/11/16 07:56:53;;;;;;;;;;;;;;;17.83;63.60;99999.47;5048517;28;19920;-76
2022/11/16 07:59:18;;;;;;;;;;;;;;;17.76;63.52;100004.47;5044615;28;19920;-75
2022/11/16 08:01:45;;;;;;;;;;;;;;;17.67;64.16;100010.88;5046554;28;19921;-74
2022/11/16 08:04:10;;;;;;;;;;;;;;;17.61;64.29;100015.53;5041955;28;19928;-74
2022/11/16 08:06:35;;;;;;;;;;;;;;;17.37;65.21;100028.31;5037854;28;19916;-72
2022/11/16 08:09:01;;;;;;;;;;;;;;;17.53;64.09;100033.28;5038303;28;19967;-74
2022/11/16 08:11:26;;;;;;;;;;;;;;;17.44;65.00;100032.28;5036379;28;20011;-73
2022/11/16 08:13:51;;;;;;;;;;;;;;;17.37;64.99;100028.31;5033211;28;20304;-75
2022/11/16 08:16:18;;;;;;;;;;;;;;;17.31;65.03;100035.72;5035781;28;19920;-75
2022/11/16 08:18:44;;;;;;;;;;;;;;;16.76;66.10;100041.72;5032809;28;19928;-75
2022/11/16 08:21:10;;;;;;;;;;;;;;;16.80;67.28;100047.38;5039074;28;19921;-75
2022/11/16 08:23:35;;;;;;;;;;;;;;;16.39;68.41;100053.06;5040774;28;19905;-75
2022/11/16 08:26:02;;;;;;;;;;;;;;;16.87;66.94;100048.66;5042713;28;19988;-75
2022/11/16 08:28:28;;;;;;;;;;;;;;;17.07;66.55;100043.03;5041372;28;19920;-76
2022/11/16 08:30:53;;;;;;;;;;;;;;;17.14;66.26;100048.91;5039630;28;20023;-75
2022/11/16 08:33:20;;;;;;;;;;;;;;;17.29;65.44;100045.25;5040138;28;20436;-74
2022/11/16 08:35:47;;;;;;;;;;;;;;;16.80;67.24;100052.78;5043861;28;19920;-77
2022/11/16 08:38:12;;;;;;;;;;;;;;;16.70;67.07;100056.41;5039136;28;19917;-75
2022/11/16 08:40:37;;;;;;;;;;;;;;;16.76;66.98;100051.75;5040340;28;19924;-74
2022/11/16 08:43:02;;;;;;;;;;;;;;;17.29;65.48;100058.81;5040623;28;20006;-75
2022/11/16 08:45:28;;;;;;;;;;;;;;;16.93;66.74;100054.84;5038923;28;19971;-76
2022/11/16 08:47:53;;;;;;;;;;;;;;;17.30;65.80;100060.44;5042376;28;20426;-72
2022/11/16 08:50:18;;;;;;;;;;;;;;;17.09;66.53;100054.41;5040366;28;19974;-72
2022/11/16 08:52:43;;;;;;;;;;;;;;;17.13;66.65;100060.06;5039865;28;20490;-75
2022/11/16 08:55:09;;;;;;;;;;;;;;;17.48;65.19;100071.41;5041656;28;20450;-73
2022/11/16 08:57:34;;;;;;;;;;;;;;;16.72;68.35;100065.06;5041659;28;19967;-74
2022/11/16 09:00:01;;;;;;;;;;;;;;;16.57;68.85;100076.03;5040057;28;19917;-74
2022/11/16 09:02:26;;;;;;;;;;;;;;;16.85;67.94;100080.69;5041034;28;19952;-75
2022/11/16 09:04:52;;;;;;;;;;;;;;;16.75;67.59;100077.25;5040986;28;20436;-73
2022/11/16 09:07:17;;;;;;;;;;;;;;;17.18;66.63;100073.59;5039790;28;20393;-75
2022/11/16 09:09:43;;;;;;;;;;;;;;;17.22;66.25;100078.16;5041128;28;19955;-74
2022/11/16 09:12:08;;;;;;;;;;;;;;;17.30;65.17;100079.44;5041041;28;20000;-74
2022/11/16 09:14:33;;;;;;;;;;;;;;;17.29;64.57;100077.84;5040210;28;19909;-73
2022/11/16 09:16:58;;;;;;;;;;;;;;;16.04;68.50;100082.34;5043501;28;19917;-75
2022/11/16 09:19:23;;;;;;;;;;;;;;;16.85;66.41;100083.41;5040052;28;19917;-73
2022/11/16 09:21:49;;;;;;;;;;;;;;;16.53;66.75;100089.34;5042237;28;19952;-75
2022/11/16 09:24:14;;;;;;;;;;;;;;;15.88;68.72;100087.00;5042037;28;20284;-74
2022/11/16 09:26:39;;;;;;;;;;;;;;;16.26;67.27;100088.97;5042970;28;19997;-75
2022/11/16 09:29:05;;;;;;;;;;;;;;;16.44;67.22;100096.44;5045421;28;19916;-76
2022/11/16 09:31:32;;;;;;;;;;;;;;;16.08;68.35;100092.31;5043742;28;19975;-75
2022/11/16 09:33:58;;;;;;;;;;;;;;;16.40;67.36;100097.28;5050588;28;20065;-76
2022/11/16 09:36:23;;;;;;;;;;;;;;;16.76;65.69;100097.88;5050993;28;20003;-74
2022/11/16 09:38:49;;;;;;;;;;;;;;;15.76;68.11;100095.44;5051308;28;20387;-74
2022/11/16 09:41:14;;;;;;;;;;;;;;;16.39;65.68;100098.38;5050391;28;19921;-75
2022/11/16 09:44:18;;;;;;;;;;;;;;;16.61;65.47;100098.78;5050802;28;19916;-76
2022/11/16 09:46:51;;;;;;;;;;;;;;;16.96;64.09;100109.34;5028144;28;19924;-73
2022/11/16 09:49:23;;;;;;;;;;;;;;;17.43;62.83;100092.34;5028137;28;20014;-74
2022/11/16 09:51:50;;;;;;;;;;;;;;;16.96;64.14;100106.63;5028027;28;19924;-73
2022/11/16 09:54:21;;;;;;;;;;;;;;;16.84;64.11;100113.53;5028196;28;19912;-74
2022/11/16 09:56:48;;;;;;;;;;;;;;;16.94;63.88;100099.91;5028636;28;20267;-72
2022/11/16 09:59:22;;;;;;;;;;;;;;;16.41;66.58;100110.56;5027961;28;20408;-74
2022/11/16 10:01:50;;;;;;;;;;;;;;;16.55;65.50;100111.59;5028030;28;19939;-75
2022/11/16 10:04:18;;;;;;;;;;;;;;;16.22;66.17;100097.94;5027825;28;20287;-76
2022/11/16 10:06:51;;;;;;;;;;;;;;;16.38;66.00;100103.00;5027949;28;20011;-74
2022/11/16 10:09:17;;;;;;;;;;;;;;;17.09;63.63;100107.88;5027837;28;19924;-76
2022/11/16 10:12:02;;;;;;;;;;;;;;;17.15;62.77;100115.72;5028064;28;19913;-76
2022/11/16 10:14:43;;;;;;;;;;;;;;;16.80;63.55;100115.22;5028169;28;19913;-75
2022/11/16 10:17:21;;;;;;;;;;;;;;;16.61;65.18;100118.59;5022354;28;19917;-74
2022/11/16 10:19:49;;;;;;;;;;;;;;;16.72;65.02;100116.63;5054276;28;19927;-74
2022/11/16 10:22:17;;;;;;;;;;;;;;;16.98;64.27;100122.66;5054104;28;19921;-72
2022/11/16 10:24:45;;;;;;;;;;;;;;;16.23;65.41;100130.22;5053794;28;19916;-72
2022/11/16 10:27:17;;;;;;;;;;;;;;;16.22;65.45;100125.84;5053572;28;20004;-74
2022/11/16 10:29:42;;;;;;;;;;;;;;;17.03;63.19;100123.41;5054665;28;19912;-73
2022/11/16 10:32:07;;;;;;;;;;;;;;;16.93;64.39;100114.53;5053906;28;19924;-74
2022/11/16 10:34:42;;;;;;;;;;;;;;;17.25;63.38;100117.53;5053925;28;20003;-72
2022/11/16 10:37:09;;;;;;;;;;;;;;;16.25;65.08;100119.91;5053753;28;19917;-74
2022/11/16 10:39:39;;;;;;;;;;;;;;;16.97;63.82;100124.56;5053616;28;19936;-72
2022/11/16 10:42:09;;;;;;;;;;;;;;;17.22;62.16;100113.47;5053770;28;19920;-73
2022/11/16 10:44:45;;;;;;;;;;;;;;;17.10;62.35;100113.03;5054153;28;19917;-74
2022/11/16 10:47:10;;;;;;;;;;;;;;;17.32;61.80;100116.09;5053402;28;19991;-74
2022/11/16 10:49:56;;;;;;;;;;;;;;;17.51;61.93;100113.50;5053638;28;20388;-74
2022/11/16 10:52:22;;;;;;;;;;;;;;;17.64;61.30;100118.22;5053126;28;19919;-75
2022/11/16 10:54:47;;;;;;;;;;;;;;;16.99;62.38;100110.69;5053301;28;19924;-73
2022/11/16 10:57:13;;;;;;;;;;;;;;;17.54;62.21;100118.31;5053689;28;19909;-73
2022/11/16 10:59:39;;;;;;;;;;;;;;;17.10;62.35;100117.66;5053613;28;19924;-73
2022/11/16 11:02:29;;;;;;;;;;;;;;;17.69;61.21;100117.38;5053183;28;19963;-72
2022/11/16 11:05:00;;;;;;;;;;;;;;;17.54;61.81;100110.19;5045536;28;19916;-72
2022/11/16 11:07:30;;;;;;;;;;;;;;;17.19;61.56;100110.50;5053266;28;19924;-73
2022/11/16 11:09:55;;;;;;;;;;;;;;;17.14;62.47;100102.44;5053140;28;19924;-72
2022/11/16 11:12:39;;;;;;;;;;;;;;;17.84;60.08;100100.88;5053153;28;20284;-74
2022/11/16 11:15:11;;;;;;;;;;;;;;;17.08;62.21;100100.84;5053030;28;20011;-74
2022/11/16 11:17:37;;;;;;;;;;;;;;;17.83;60.09;100104.66;5048414;28;20404;-73
2022/11/16 11:20:03;;;;;;;;;;;;;;;17.62;60.61;100104.13;5037548;28;20125;-74
2022/11/16 11:22:30;;;;;;;;;;;;;;;16.73;62.85;100112.81;5053095;28;20012;-73
2022/11/16 11:24:55;;;;;;;;;;;;;;;17.09;62.05;100107.88;5052504;28;19917;-74
2022/11/16 11:27:22;;;;;;;;;;;;;;;17.47;60.64;100109.69;5052265;28;19939;-74
2022/11/16 11:29:52;;;;;;;;;;;;;;;17.80;60.81;100105.25;5053468;28;20356;-72
2022/11/16 11:32:18;;;;;;;;;;;;;;;17.87;59.93;100106.53;5052645;28;19939;-73
2022/11/16 11:34:49;;;;;;;;;;;;;;;18.32;58.73;100099.66;5052825;28;19921;-73
2022/11/16 11:37:16;;;;;;;;;;;;;;;18.23;58.90;100096.81;5052566;28;19917;-73
2022/11/16 11:39:41;;;;;;;;;;;;;;;18.70;57.96;100090.41;5052337;28;19927;-73
2022/11/16 11:42:12;;;;;;;;;;;;;;;18.35;59.10;100090.94;5052563;28;20365;-75
2022/11/16 11:44:50;;;;;;;;;;;;;;;18.12;58.17;100091.81;5053167;28;19962;-73
2022/11/16 11:47:15;;;;;;;;;;;;;;;18.20;57.85;100091.16;5052357;28;19917;-74
2022/11/16 11:49:48;;;;;;;;;;;;;;;18.10;57.70;100080.41;5052220;28;19999;-73
2022/11/16 11:52:20;;;;;;;;;;;;;;;18.18;58.15;100083.25;5051909;28;20298;-73
2022/11/16 11:54:46;;;;;;;;;;;;;;;18.11;58.06;100082.00;5052054;28;20011;-73
2022/11/16 11:57:19;;;;;;;;;;;;;;;18.15;57.68;100093.94;5052316;28;19913;-71
2022/11/16 11:59:45;;;;;;;;;;;;;;;18.27;58.06;100089.69;5052707;28;19977;-72
2022/11/16 12:02:20;;;;;;;;;;;;;;;18.71;55.91;100086.56;5052202;28;19920;-74
2022/11/16 12:04:48;;;;;;;;;;;;;;;18.15;57.12;100081.16;5052257;28;19966;-74
2022/11/16 12:07:26;;;;;;;;;;;;;;;18.45;56.46;100070.94;5051885;28;19927;-73
2022/11/16 12:10:01;;;;;;;;;;;;;;;18.40;57.49;100074.50;5052035;28;19913;-74
2022/11/16 12:12:29;;;;;;;;;;;;;;;18.04;56.84;100084.31;5052082;28;19917;-74
2022/11/16 12:15:00;;;;;;;;;;;;;;;18.45;57.01;100079.09;5052382;28;19966;-73
2022/11/16 12:17:31;;;;;;;;;;;;;;;18.66;56.79;100073.06;5035583;28;19920;-73
2022/11/16 12:20:15;;;;;;;;;;;;;;;18.67;56.60;100073.88;5039280;28;19916;-72
2022/11/16 12:22:47;;;;;;;;;;;;;;;18.73;56.46;100067.25;5048044;28;19970;-72
2022/11/16 12:25:47;;;;;;;;;;;;;;;18.64;56.11;100069.81;5051456;28;20007;-73
2022/11/16 12:28:12;;;;;;;;;;;;;;;18.75;55.33;100068.53;4989700;28;19913;-71
2022/11/16 12:30:56;;;;;;;;;;;;;;;18.70;55.82;100071.34;4989906;28;19917;-72
2022/11/16 12:33:27;;;;;;;;;;;;;;;18.68;53.72;100070.84;4989732;28;19918;-73
2022/11/16 12:36:02;;;;;;;;;;;;;;;18.75;54.74;100071.25;4989231;28;19928;-74
2022/11/16 12:38:33;;;;;;;;;;;;;;;18.47;56.08;100071.47;4975722;28;19918;-72
2022/11/16 12:41:08;;;;;;;;;;;;;;;18.32;56.03;100073.28;4969719;28;20385;-72
2022/11/16 12:43:52;;;;;;;;;;;;;;;18.31;56.00;100068.13;4976213;28;19918;-72
2022/11/16 12:46:29;;;;;;;;;;;;;;;18.50;55.15;100059.97;4980224;28;19927;-73
2022/11/16 12:49:09;;;;;;;;;;;;;;;18.81;54.90;100052.94;4976630;28;19988;-73
2022/11/16 12:51:42;;;;;;;;;;;;;;;18.46;55.64;100057.03;4978637;28;20762;-73
2022/11/16 12:54:24;;;;;;;;;;;;;;;18.54;55.17;100055.56;4981428;28;20182;-72
2022/11/16 12:56:58;;;;;;;;;;;;;;;18.80;55.45;100049.41;4981844;28;19913;-72
2022/11/16 12:59:38;;;;;;;;;;;;;;;18.86;54.66;100048.22;4981386;28;19921;-74
2022/11/16 13:02:22;;;;;;;;;;;;;;;19.09;53.86;100049.97;4999363;28;20443;-72
2022/11/16 13:04:53;;;;;;;;;;;;;;;19.07;55.07;100046.75;5026043;28;19920;-73
2022/11/16 13:07:23;;;;;;;;;;;;;;;19.19;54.42;100047.06;5035956;28;19920;-73
2022/11/16 13:09:52;;;;;;;;;;;;;;;19.27;54.81;100048.28;5043706;28;19917;-71
2022/11/16 13:12:22;;;;;;;;;;;;;;;18.70;55.93;100051.50;5044625;28;20439;-73
2022/11/16 13:14:48;;;;;;;;;;;;;;;18.83;55.36;100046.09;5044074;28;19948;-73
2022/11/16 13:17:25;;;;;;;;;;;;;;;18.84;55.70;100045.00;5038279;28;19939;-72
2022/11/16 13:20:10;;;;;;;;;;;;;;;18.99;55.65;100039.25;5042865;28;19921;-74
2022/11/16 13:22:37;;;;;;;;;;;;;;;19.40;54.44;100039.34;5042952;28;20233;-72
2022/11/16 13:25:02;;;;;;;;;;;;;;;19.16;54.08;100035.97;5027121;28;19913;-73
2022/11/16 13:27:30;;;;;;;;;;;;;;;18.97;54.82;100032.50;5023756;28;20373;-73